Time;durP1;ratioP1;P1;durP2;ratioP2;P2;SDS_P1;SDS_P2;PMS_P1;PMS_P2;Temp;Humidity;BMP_temperature;BMP_pressure;BME280_temperature;BME280_humidity;BME280_pressure;Samples;Min_cycle;Max_cycle;Signal;HPM_P1;HPM_P2
2021/05/20 00:02:14;;;;;;;2.73;2.40;;;8.40;99.90;;;;;;4999773;28;20212;-77
2021/05/20 00:04:40;;;;;;;3.30;2.00;;;8.30;99.90;;;;;;5001452;28;20198;-75
2021/05/20 00:07:06;;;;;;;2.17;1.97;;;8.30;99.90;;;;;;5000580;28;20211;-74
2021/05/20 00:09:32;;;;;;;2.60;2.40;;;8.30;99.90;;;;;;4998470;28;20294;-74
2021/05/20 00:11:57;;;;;;;3.13;2.00;;;8.40;99.90;;;;;;5000394;28;20175;-74
2021/05/20 00:14:25;;;;;;;2.80;2.03;;;8.50;99.90;;;;;;4997587;28;20194;-75
2021/05/20 00:16:50;;;;;;;2.40;2.10;;;8.40;99.90;;;;;;4997999;28;20175;-75
2021/05/20 00:19:16;;;;;;;2.93;2.23;;;8.50;99.90;;;;;;4996633;28;20184;-75
2021/05/20 00:21:42;;;;;;;2.37;1.93;;;8.60;99.90;;;;;;4999715;28;20511;-74
2021/05/20 00:24:08;;;;;;;3.13;2.17;;;8.70;99.90;;;;;;4995459;28;20215;-75
2021/05/20 00:26:34;;;;;;;4.67;2.63;;;8.80;99.90;;;;;;4998504;28;20254;-75
2021/05/20 00:29:00;;;;;;;2.77;2.10;;;8.80;99.90;;;;;;4998750;28;20227;-74
2021/05/20 00:31:26;;;;;;;3.63;2.17;;;8.90;99.90;;;;;;4996750;28;20198;-74
2021/05/20 00:33:52;;;;;;;2.40;1.63;;;8.90;99.90;;;;;;4999230;28;20242;-73
2021/05/20 00:36:18;;;;;;;2.57;1.97;;;8.90;99.90;;;;;;4999180;28;20223;-74
2021/05/20 00:38:44;;;;;;;3.33;2.33;;;8.80;99.90;;;;;;5001549;28;20190;-74
2021/05/20 00:41:10;;;;;;;2.43;2.03;;;8.90;99.90;;;;;;4999565;28;20228;-75
2021/05/20 00:43:36;;;;;;;2.97;2.10;;;8.90;99.90;;;;;;4997827;28;20688;-73
2021/05/20 00:46:04;;;;;;;3.10;2.00;;;9.00;99.90;;;;;;4999568;28;20239;-74
2021/05/20 00:48:31;;;;;;;3.70;2.60;;;9.00;99.90;;;;;;4999979;28;20188;-75
2021/05/20 00:50:56;;;;;;;4.00;2.50;;;9.00;99.90;;;;;;5000108;28;20183;-75
2021/05/20 00:53:22;;;;;;;2.57;2.07;;;9.10;99.90;;;;;;5000229;28;20601;-74
2021/05/20 00:55:51;;;;;;;3.60;2.83;;;9.10;99.90;;;;;;5000829;28;20271;-74
2021/05/20 00:58:17;;;;;;;3.73;2.70;;;9.10;99.90;;;;;;5000386;28;20286;-73
2021/05/20 01:00:43;;;;;;;3.93;2.47;;;9.10;99.90;;;;;;4999105;28;20266;-74
2021/05/20 01:03:09;;;;;;;2.97;2.20;;;9.00;99.90;;;;;;5001118;28;20208;-75
2021/05/20 01:05:35;;;;;;;3.10;2.13;;;9.10;99.90;;;;;;4999401;28;20215;-75
2021/05/20 01:08:01;;;;;;;2.77;2.10;;;9.10;99.90;;;;;;5002295;28;20190;-74
2021/05/20 01:10:26;;;;;;;3.43;2.63;;;9.20;99.90;;;;;;4997173;28;20185;-74
2021/05/20 01:12:52;;;;;;;3.50;2.47;;;9.30;99.90;;;;;;5000571;28;20204;-75
2021/05/20 01:15:27;;;;;;;3.93;2.43;;;9.30;99.90;;;;;;4997915;28;20196;-74
2021/05/20 01:18:01;;;;;;;3.03;2.40;;;9.40;99.90;;;;;;5003506;28;20697;-74
2021/05/20 01:20:29;;;;;;;3.17;2.50;;;9.50;99.90;;;;;;5001023;28;20185;-74
2021/05/20 01:23:07;;;;;;;3.00;2.43;;;9.50;99.90;;;;;;4999990;28;20214;-75
2021/05/20 01:25:35;;;;;;;3.73;2.80;;;9.50;99.90;;;;;;4996717;28;20597;-75
2021/05/20 01:28:04;;;;;;;2.40;2.03;;;9.50;99.90;;;;;;4998999;28;20171;-76
2021/05/20 01:30:31;;;;;;;3.60;2.73;;;9.50;99.90;;;;;;4997689;28;20190;-74
2021/05/20 01:32:57;;;;;;;3.00;2.27;;;9.50;99.90;;;;;;4996583;28;20196;-74
2021/05/20 01:35:24;;;;;;;3.47;2.37;;;9.50;99.90;;;;;;4996826;28;20195;-74
2021/05/20 01:37:50;;;;;;;3.83;2.83;;;9.50;99.90;;;;;;4998291;28;20192;-74
2021/05/20 01:40:16;;;;;;;2.87;2.20;;;9.60;99.90;;;;;;4999989;28;20199;-74
2021/05/20 01:42:42;;;;;;;4.03;2.90;;;9.50;99.90;;;;;;4998315;28;20204;-74
2021/05/20 01:45:08;;;;;;;3.20;2.87;;;9.50;99.90;;;;;;4999563;28;20621;-73
2021/05/20 01:47:36;;;;;;;3.13;2.77;;;9.50;99.90;;;;;;5000210;28;20667;-74
2021/05/20 01:50:03;;;;;;;3.10;2.67;;;9.50;99.90;;;;;;5000529;28;20647;-73
2021/05/20 01:52:29;;;;;;;3.37;2.37;;;9.60;99.90;;;;;;5000127;28;20351;-74
2021/05/20 01:54:55;;;;;;;2.83;2.27;;;9.50;99.90;;;;;;4995324;28;20270;-74
2021/05/20 01:57:20;;;;;;;4.80;3.20;;;9.50;99.90;;;;;;4997966;28;20896;-74
2021/05/20 01:59:46;;;;;;;2.77;2.27;;;9.50;99.90;;;;;;5000036;28;20176;-74
2021/05/20 02:02:12;;;;;;;2.30;2.00;;;9.50;99.90;;;;;;5000162;28;20263;-74
2021/05/20 02:04:38;;;;;;;3.43;2.50;;;9.50;99.90;;;;;;4997268;28;20180;-74
2021/05/20 02:07:04;;;;;;;3.53;2.43;;;9.50;99.90;;;;;;4990418;28;20234;-73
2021/05/20 02:09:29;;;;;;;3.83;2.70;;;9.60;99.90;;;;;;4998245;28;20268;-75
2021/05/20 02:11:55;;;;;;;3.13;2.17;;;9.60;99.90;;;;;;4997994;28;20203;-73
2021/05/20 02:14:20;;;;;;;3.97;2.70;;;9.50;99.90;;;;;;4998830;28;20652;-74
2021/05/20 02:16:50;;;;;;;3.13;2.43;;;9.50;99.90;;;;;;4997844;28;20183;-74
2021/05/20 02:19:15;;;;;;;3.77;2.43;;;9.60;99.90;;;;;;4996304;28;20527;-73
2021/05/20 02:21:43;;;;;;;2.10;1.80;;;9.50;99.90;;;;;;5000948;28;20194;-75
2021/05/20 02:24:09;;;;;;;2.87;2.37;;;9.50;99.90;;;;;;4998273;28;20207;-74
2021/05/20 02:26:41;;;;;;;3.53;2.70;;;9.50;99.90;;;;;;5000491;28;20226;-74
2021/05/20 02:29:07;;;;;;;2.40;2.10;;;9.60;99.90;;;;;;4999325;28;20200;-73
2021/05/20 02:31:33;;;;;;;3.63;2.20;;;9.50;99.90;;;;;;4995398;28;20211;-74
2021/05/20 02:33:58;;;;;;;5.03;3.27;;;9.50;99.90;;;;;;4997882;28;20242;-76
2021/05/20 02:36:25;;;;;;;4.07;2.50;;;9.50;99.90;;;;;;4999513;28;20191;-73
2021/05/20 02:38:50;;;;;;;2.73;2.03;;;9.50;99.90;;;;;;5001286;28;20190;-73
2021/05/20 02:41:16;;;;;;;3.43;2.90;;;9.50;99.90;;;;;;4995706;28;20192;-74
2021/05/20 02:43:42;;;;;;;3.27;2.50;;;9.50;99.90;;;;;;4993962;28;20702;-75
2021/05/20 02:46:12;;;;;;;2.83;2.60;;;9.40;99.90;;;;;;4999841;28;20253;-73
2021/05/20 02:48:37;;;;;;;4.27;2.70;;;9.40;99.90;;;;;;4995974;28;20175;-72
2021/05/20 02:51:03;;;;;;;3.90;2.97;;;9.30;99.90;;;;;;5001790;28;20198;-73
2021/05/20 02:53:29;;;;;;;3.67;2.83;;;9.30;99.90;;;;;;5001228;28;20208;-74
2021/05/20 02:55:55;;;;;;;3.50;2.83;;;9.30;99.90;;;;;;4999640;28;20191;-76
2021/05/20 02:58:22;;;;;;;3.23;2.30;;;9.30;99.90;;;;;;4996666;28;20208;-75
2021/05/20 03:00:48;;;;;;;5.80;3.20;;;9.30;99.90;;;;;;4997954;28;20194;-74
2021/05/20 03:03:15;;;;;;;5.17;2.47;;;9.30;99.90;;;;;;5000045;28;20235;-74
2021/05/20 03:05:42;;;;;;;3.70;2.90;;;9.40;99.90;;;;;;4999774;28;20628;-75
2021/05/20 03:08:09;;;;;;;3.83;2.73;;;9.30;99.90;;;;;;4996967;28;20589;-75
2021/05/20 03:10:41;;;;;;;4.50;3.20;;;9.30;99.90;;;;;;4998053;28;20190;-73
2021/05/20 03:13:07;;;;;;;4.50;2.60;;;9.30;99.90;;;;;;4994547;28;20295;-75
2021/05/20 03:15:32;;;;;;;4.33;2.63;;;9.40;99.90;;;;;;4995406;28;20287;-75
2021/05/20 03:17:58;;;;;;;4.13;3.23;;;9.40;99.90;;;;;;4993768;28;20197;-74
2021/05/20 03:20:26;;;;;;;3.87;2.77;;;9.40;99.90;;;;;;4999265;28;20231;-74
2021/05/20 03:22:51;;;;;;;3.73;3.20;;;9.50;99.90;;;;;;4999820;28;20208;-74
2021/05/20 03:25:18;;;;;;;3.87;2.97;;;9.60;99.90;;;;;;4997777;28;20681;-73
2021/05/20 03:27:44;;;;;;;3.77;2.77;;;9.60;99.90;;;;;;4997518;28;20177;-74
2021/05/20 03:30:12;;;;;;;4.73;3.30;;;9.60;99.90;;;;;;4998498;28;20188;-75
2021/05/20 03:32:38;;;;;;;6.43;3.33;;;9.50;99.90;;;;;;4997697;28;20262;-74
2021/05/20 03:35:04;;;;;;;4.57;3.20;;;9.60;99.90;;;;;;4998180;28;20524;-73
2021/05/20 03:37:30;;;;;;;2.93;2.43;;;9.60;99.90;;;;;;5002559;28;20188;-75
2021/05/20 03:39:55;;;;;;;4.13;3.20;;;9.60;99.90;;;;;;4999327;28;20187;-75
2021/05/20 03:42:21;;;;;;;4.87;3.43;;;9.70;99.90;;;;;;5003358;28;20579;-74
2021/05/20 03:44:46;;;;;;;4.50;2.83;;;9.70;99.90;;;;;;4995879;28;20765;-74
2021/05/20 03:47:12;;;;;;;3.50;2.67;;;9.70;99.90;;;;;;5002678;28;20208;-74
2021/05/20 03:49:38;;;;;;;5.93;3.30;;;9.80;99.90;;;;;;5001626;28;20719;-75
2021/05/20 03:52:04;;;;;;;3.80;2.97;;;9.80;99.90;;;;;;5000216;28;20267;-75
2021/05/20 03:54:29;;;;;;;5.30;3.43;;;9.70;99.90;;;;;;5003322;28;20222;-75
2021/05/20 03:56:55;;;;;;;3.70;3.03;;;9.70;99.90;;;;;;5001025;28;20556;-73
2021/05/20 03:59:20;;;;;;;4.23;3.03;;;9.70;99.90;;;;;;5001314;28;20243;-73
2021/05/20 04:01:47;;;;;;;4.30;3.13;;;9.70;99.90;;;;;;5003034;28;20554;-74
2021/05/20 04:04:14;;;;;;;5.40;3.70;;;9.60;99.90;;;;;;5000169;28;20211;-73
2021/05/20 04:06:40;;;;;;;3.93;2.93;;;9.60;99.90;;;;;;5001864;28;20266;-74
2021/05/20 04:09:05;;;;;;;5.10;2.97;;;9.50;99.90;;;;;;5001599;28;20191;-74
2021/05/20 04:11:36;;;;;;;5.07;3.33;;;9.50;99.90;;;;;;5003207;28;20703;-75
2021/05/20 04:14:02;;;;;;;4.20;3.17;;;9.50;99.90;;;;;;5002044;28;20203;-75
2021/05/20 04:16:28;;;;;;;3.90;3.33;;;9.50;99.90;;;;;;4999883;28;20192;-75
2021/05/20 04:18:55;;;;;;;5.10;3.03;;;9.50;99.90;;;;;;5001515;28;20705;-74
2021/05/20 04:21:20;;;;;;;5.60;3.67;;;9.60;99.90;;;;;;4999619;28;20219;-74
2021/05/20 04:23:47;;;;;;;4.30;3.33;;;9.60;99.90;;;;;;5001302;28;20243;-75
2021/05/20 04:26:19;;;;;;;5.77;3.67;;;9.70;99.90;;;;;;5015641;28;20211;-74
2021/05/20 04:28:45;;;;;;;5.23;3.93;;;9.70;99.90;;;;;;5001385;28;20504;-73
2021/05/20 04:31:12;;;;;;;5.70;3.33;;;9.80;99.90;;;;;;4999776;28;20266;-74
2021/05/20 04:33:37;;;;;;;4.67;3.43;;;9.90;99.90;;;;;;5002178;28;20211;-74
2021/05/20 04:36:03;;;;;;;4.73;3.03;;;10.00;99.90;;;;;;5000781;28;20213;-73
2021/05/20 04:38:29;;;;;;;3.93;3.23;;;10.00;99.90;;;;;;4998777;28;20195;-74
2021/05/20 04:40:54;;;;;;;4.83;3.40;;;10.00;99.90;;;;;;5002074;28;20188;-74
2021/05/20 04:43:20;;;;;;;4.17;2.87;;;10.10;99.90;;;;;;4999042;28;20207;-76
2021/05/20 04:45:46;;;;;;;4.57;3.57;;;10.10;99.90;;;;;;4997168;28;20218;-74
2021/05/20 04:48:12;;;;;;;5.30;4.30;;;10.20;99.90;;;;;;4999483;28;20655;-75
2021/05/20 04:50:38;;;;;;;4.97;3.83;;;10.30;99.90;;;;;;4997619;28;20188;-74
2021/05/20 04:53:03;;;;;;;4.77;3.63;;;10.30;99.90;;;;;;5001583;28;20214;-73
2021/05/20 04:55:29;;;;;;;4.70;3.10;;;10.40;99.90;;;;;;5002482;28;20192;-73
2021/05/20 04:57:55;;;;;;;4.40;3.77;;;10.50;99.90;;;;;;5001462;28;20292;-74
2021/05/20 05:00:21;;;;;;;8.87;5.73;;;10.60;99.90;;;;;;4999051;28;20200;-76
2021/05/20 05:02:47;;;;;;;4.97;3.97;;;10.60;99.90;;;;;;5001646;28;20210;-75
2021/05/20 05:05:12;;;;;;;6.27;5.17;;;10.60;99.90;;;;;;5000086;28;20188;-73
2021/05/20 05:07:38;;;;;;;11.40;6.60;;;10.60;99.90;;;;;;5001482;28;20635;-73
2021/05/20 05:10:05;;;;;;;10.20;6.03;;;10.70;99.90;;;;;;4998974;28;20220;-73
2021/05/20 05:12:31;;;;;;;10.03;6.17;;;10.60;99.90;;;;;;4999028;28;20698;-74
2021/05/20 05:14:58;;;;;;;12.03;6.93;;;10.60;99.90;;;;;;5000063;28;20267;-72
2021/05/20 05:17:25;;;;;;;9.77;6.50;;;10.80;99.90;;;;;;4998054;28;20259;-73
2021/05/20 05:19:50;;;;;;;8.60;6.40;;;10.80;99.90;;;;;;5002972;28;20658;-76
2021/05/20 05:22:16;;;;;;;9.90;6.43;;;10.70;99.90;;;;;;5002766;28;20264;-74
2021/05/20 05:24:43;;;;;;;9.57;6.73;;;10.70;99.90;;;;;;4998176;28;20188;-74
2021/05/20 05:27:09;;;;;;;10.57;6.37;;;10.70;99.90;;;;;;5002128;28;20644;-73
2021/05/20 05:29:37;;;;;;;10.20;6.57;;;10.80;99.90;;;;;;5001155;28;20173;-74
2021/05/20 05:32:03;;;;;;;9.90;6.23;;;10.90;99.90;;;;;;5001074;28;20657;-74
2021/05/20 05:34:29;;;;;;;10.13;6.97;;;11.10;99.90;;;;;;4999847;28;20192;-73
2021/05/20 05:36:55;;;;;;;10.77;6.40;;;11.20;99.90;;;;;;5000679;28;20190;-73
2021/05/20 05:39:20;;;;;;;9.93;6.63;;;11.30;99.90;;;;;;5001839;28;20187;-73
2021/05/20 05:41:46;;;;;;;8.67;5.93;;;11.40;99.90;;;;;;4997634;28;20196;-75
2021/05/20 05:44:20;;;;;;;10.87;6.37;;;11.40;99.90;;;;;;5000475;28;20203;-74
2021/05/20 05:46:45;;;;;;;10.63;7.43;;;11.40;99.90;;;;;;5000362;28;20204;-75
2021/05/20 05:49:31;;;;;;;10.40;6.57;;;11.30;99.90;;;;;;4999604;28;20187;-75
2021/05/20 05:52:05;;;;;;;11.03;6.90;;;11.40;99.90;;;;;;4997689;28;20262;-76
2021/05/20 05:54:30;;;;;;;12.17;7.53;;;11.40;99.90;;;;;;4997682;28;20231;-75
2021/05/20 05:56:56;;;;;;;10.13;6.82;;;11.40;99.90;;;;;;4999957;28;20203;-75
2021/05/20 05:59:21;;;;;;;9.63;6.43;;;11.40;99.90;;;;;;4998884;28;20218;-75
2021/05/20 06:01:48;;;;;;;9.23;6.87;;;11.50;99.90;;;;;;4997432;28;20334;-75
2021/05/20 06:04:19;;;;;;;9.50;6.47;;;11.60;99.90;;;;;;4994320;28;20216;-75
2021/05/20 06:06:45;;;;;;;10.63;6.90;;;11.60;99.90;;;;;;4996039;28;20211;-76
2021/05/20 06:09:12;;;;;;;10.67;7.27;;;11.60;99.90;;;;;;5000186;28;20192;-74
2021/05/20 06:11:38;;;;;;;12.30;8.00;;;11.80;99.90;;;;;;4999545;28;20176;-74
2021/05/20 06:14:06;;;;;;;9.70;7.17;;;11.70;99.90;;;;;;4999472;28;20203;-74
2021/05/20 06:16:40;;;;;;;11.48;7.47;;;11.90;99.90;;;;;;5001096;28;20556;-74
2021/05/20 06:19:07;;;;;;;10.77;8.18;;;12.20;99.90;;;;;;4997174;28;20512;-75
2021/05/20 06:21:32;;;;;;;11.55;7.45;;;12.40;99.90;;;;;;4998986;28;20241;-75
2021/05/20 06:23:59;;;;;;;10.70;6.97;;;12.40;99.90;;;;;;4998200;28;20606;-74
2021/05/20 06:26:28;;;;;;;11.07;6.53;;;12.30;99.90;;;;;;4996610;28;20215;-74
2021/05/20 06:28:54;;;;;;;11.10;7.45;;;12.40;99.90;;;;;;4998076;28;20184;-74
2021/05/20 06:31:20;;;;;;;9.88;6.80;;;12.30;99.90;;;;;;4997005;28;20296;-74
2021/05/20 06:33:47;;;;;;;11.23;6.95;;;12.30;99.90;;;;;;5000893;28;20285;-73
2021/05/20 06:36:13;;;;;;;9.23;6.95;;;12.20;99.90;;;;;;4999100;28;20179;-75
2021/05/20 06:38:39;;;;;;;11.35;7.18;;;12.40;99.90;;;;;;4998163;28;20548;-74
2021/05/20 06:41:07;;;;;;;10.60;7.53;;;12.50;99.90;;;;;;4998272;28;20179;-73
2021/05/20 06:43:34;;;;;;;11.32;7.50;;;12.50;99.90;;;;;;4998322;28;20214;-74
2021/05/20 06:46:38;;;;;;;9.70;7.78;;;12.60;99.90;;;;;;4999263;28;20199;-74
2021/05/20 06:49:04;;;;;;;9.48;6.95;;;12.70;99.90;;;;;;4927277;29;20196;-74
2021/05/20 06:51:30;;;;;;;10.35;7.70;;;12.90;99.90;;;;;;4928247;29;20269;-74
2021/05/20 06:53:56;;;;;;;10.68;7.68;;;13.10;99.90;;;;;;4959765;28;20265;-75
2021/05/20 06:56:24;;;;;;;11.35;7.90;;;13.20;99.90;;;;;;5000676;28;20184;-74
2021/05/20 07:01:34;;;;;;;11.50;7.47;;;13.30;99.90;;;;;;4998263;28;20250;-74
2021/05/20 07:04:00;;;;;;;10.68;7.88;;;13.30;99.90;;;;;;4994685;28;20689;-74
2021/05/20 07:06:27;;;;;;;11.50;8.50;;;13.40;99.90;;;;;;4998320;28;20286;-74
2021/05/20 07:08:52;;;;;;;11.45;7.38;;;13.70;99.90;;;;;;4999329;28;20227;-75
2021/05/20 07:11:20;;;;;;;8.77;7.32;;;13.90;99.90;;;;;;4997666;28;20590;-74
2021/05/20 07:13:46;;;;;;;9.85;7.60;;;14.00;99.90;;;;;;4997071;28;20282;-75
2021/05/20 07:16:11;;;;;;;8.90;6.80;;;13.90;99.90;;;;;;4998295;28;20626;-76
2021/05/20 07:18:37;;;;;;;9.93;7.13;;;13.70;99.90;;;;;;5000104;28;20187;-74
2021/05/20 07:21:04;;;;;;;10.18;7.65;;;14.00;99.90;;;;;;4995980;28;20734;-75
2021/05/20 07:23:30;;;;;;;10.48;7.40;;;14.10;99.90;;;;;;5000917;28;21112;-75
2021/05/20 07:25:56;;;;;;;9.63;6.68;;;14.20;99.90;;;;;;4995859;28;20302;-75
2021/05/20 07:28:22;;;;;;;8.38;6.45;;;14.20;99.90;;;;;;4992074;28;20619;-74
2021/05/20 07:30:48;;;;;;;7.20;6.20;;;14.10;99.90;;;;;;4998449;28;20187;-75
2021/05/20 07:33:14;;;;;;;8.43;6.50;;;14.30;99.90;;;;;;4997909;28;20207;-75
2021/05/20 07:35:43;;;;;;;9.82;7.30;;;14.40;99.90;;;;;;5000846;28;20195;-75
2021/05/20 07:38:08;;;;;;;9.80;6.80;;;14.20;99.90;;;;;;5001773;28;20180;-74
2021/05/20 07:40:34;;;;;;;9.52;6.90;;;14.10;99.90;;;;;;4999926;28;20313;-74
2021/05/20 07:43:00;;;;;;;9.35;5.88;;;14.20;99.90;;;;;;5006394;28;20658;-74
2021/05/20 07:45:27;;;;;;;8.20;6.65;;;14.30;99.90;;;;;;4999062;28;20190;-75
2021/05/20 07:47:52;;;;;;;7.18;5.68;;;14.40;99.90;;;;;;4992934;28;20557;-74
2021/05/20 07:50:18;;;;;;;7.13;5.15;;;14.50;99.90;;;;;;4996588;28;20176;-75
2021/05/20 07:52:44;;;;;;;8.57;5.55;;;14.80;99.90;;;;;;4993417;28;20213;-76
2021/05/20 07:55:11;;;;;;;6.35;5.55;;;14.80;99.90;;;;;;4996008;28;20185;-76
2021/05/20 07:57:36;;;;;;;4.95;4.40;;;15.20;99.90;;;;;;4994909;28;20241;-75
2021/05/20 08:00:04;;;;;;;5.63;4.93;;;15.40;99.90;;;;;;4993542;28;20255;-74
2021/05/20 08:03:03;;;;;;;6.65;5.18;;;15.50;99.90;;;;;;4993120;28;20872;-76
2021/05/20 08:05:40;;;;;;;6.13;5.13;;;15.60;99.90;;;;;;4990518;28;20641;-76
2021/05/20 08:10:47;;;;;;;5.25;4.10;;;15.40;99.90;;;;;;4992423;28;20181;-75
2021/05/20 08:13:13;;;;;;;5.97;4.28;;;15.90;99.90;;;;;;4996065;28;20252;-75
2021/05/20 08:15:40;;;;;;;4.53;4.05;;;16.20;99.90;;;;;;4993457;28;20582;-74
2021/05/20 08:18:06;;;;;;;3.60;3.30;;;16.10;99.90;;;;;;4995163;28;20179;-74
2021/05/20 08:20:31;;;;;;;4.93;4.03;;;16.00;99.90;;;;;;4993899;28;20200;-76
2021/05/20 08:22:57;;;;;;;3.33;2.70;;;16.00;99.90;;;;;;4995977;28;20922;-74
2021/05/20 08:25:24;;;;;;;4.28;3.13;;;16.40;99.90;;;;;;4997135;28;20215;-75
2021/05/20 08:27:50;;;;;;;5.25;3.55;;;16.60;99.90;;;;;;4997218;28;20184;-75
2021/05/20 08:30:17;;;;;;;3.47;3.17;;;16.50;99.90;;;;;;4996019;28;20535;-74
2021/05/20 08:32:47;;;;;;;3.38;2.92;;;16.60;99.90;;;;;;4995409;28;20255;-75
2021/05/20 08:35:14;;;;;;;3.40;3.10;;;16.50;99.90;;;;;;4996726;28;20517;-76
2021/05/20 08:37:41;;;;;;;4.68;2.50;;;16.80;99.90;;;;;;4999409;28;20191;-76
2021/05/20 08:40:08;;;;;;;3.95;2.80;;;16.80;99.90;;;;;;4997777;28;20188;-76
2021/05/20 08:42:34;;;;;;;3.15;2.83;;;16.50;99.90;;;;;;4998514;28;20647;-75
2021/05/20 08:45:18;;;;;;;4.13;3.70;;;16.70;99.90;;;;;;4999121;28;20216;-77
2021/05/20 08:47:47;;;;;;;5.80;4.18;;;16.70;99.90;;;;;;4996870;28;20212;-75
2021/05/20 08:50:14;;;;;;;3.70;3.35;;;16.70;99.90;;;;;;4998219;28;20466;-75
2021/05/20 08:52:41;;;;;;;3.50;3.20;;;16.60;99.90;;;;;;4998383;28;20286;-76
2021/05/20 08:55:16;;;;;;;3.58;3.13;;;16.20;99.90;;;;;;4995889;28;20718;-75
2021/05/20 08:57:42;;;;;;;2.90;2.60;;;15.70;99.90;;;;;;5002374;28;20222;-75
2021/05/20 09:00:14;;;;;;;3.95;2.83;;;15.80;99.90;;;;;;4999577;28;20225;-75
2021/05/20 09:02:39;;;;;;;3.00;2.70;;;16.20;99.90;;;;;;4997527;28;20668;-75
2021/05/20 09:05:11;;;;;;;3.08;2.63;;;16.50;99.90;;;;;;4999273;28;20179;-76
2021/05/20 09:07:42;;;;;;;2.70;2.25;;;16.60;99.90;;;;;;4997932;28;20677;-74
2021/05/20 09:10:17;;;;;;;2.40;1.88;;;16.80;99.90;;;;;;5000551;28;20175;-76
2021/05/20 09:12:44;;;;;;;2.00;1.73;;;16.70;99.90;;;;;;4998327;28;20266;-75
2021/05/20 09:15:25;;;;;;;1.80;1.15;;;16.80;99.90;;;;;;4995376;28;20180;-75
2021/05/20 09:17:52;;;;;;;1.00;0.90;;;16.60;99.90;;;;;;4996333;28;20276;-76
2021/05/20 09:20:19;;;;;;;1.35;1.25;;;16.70;99.90;;;;;;4997471;28;20188;-76
2021/05/20 09:22:45;;;;;;;2.13;1.20;;;17.10;99.90;;;;;;4997248;28;20200;-75
2021/05/20 09:25:13;;;;;;;1.95;1.63;;;17.50;99.90;;;;;;4999296;28;20242;-75
2021/05/20 09:27:45;;;;;;;1.15;1.00;;;17.60;99.90;;;;;;4999951;28;20211;-76
2021/05/20 09:30:24;;;;;;;2.03;1.52;;;17.20;99.90;;;;;;5000785;28;20187;-75
2021/05/20 09:32:57;;;;;;;1.10;0.93;;;17.20;99.90;;;;;;5006368;28;20203;-77
2021/05/20 09:35:29;;;;;;;1.15;1.05;;;17.30;99.90;;;;;;4999968;28;20185;-74
2021/05/20 09:37:57;;;;;;;1.73;1.10;;;17.40;99.90;;;;;;5000103;28;20191;-76
2021/05/20 09:40:26;;;;;;;1.58;1.15;;;17.20;99.90;;;;;;4999763;28;20709;-76
2021/05/20 09:42:52;;;;;;;2.17;0.88;;;16.80;99.90;;;;;;4998271;28;20195;-76
2021/05/20 09:45:22;;;;;;;1.48;1.38;;;16.90;99.90;;;;;;4999439;28;20199;-75
2021/05/20 09:47:49;;;;;;;1.52;1.30;;;17.20;99.90;;;;;;5000328;28;20200;-77
2021/05/20 09:50:19;;;;;;;1.65;1.45;;;17.40;99.90;;;;;;5001082;28;20186;-77
2021/05/20 09:52:45;;;;;;;2.08;1.13;;;17.30;99.90;;;;;;4998290;28;20235;-75
2021/05/20 09:55:24;;;;;;;2.33;1.00;;;17.00;99.90;;;;;;4998615;28;20211;-75
2021/05/20 09:57:51;;;;;;;1.70;1.15;;;17.30;99.90;;;;;;4996425;28;20211;-75
2021/05/20 10:00:22;;;;;;;1.10;0.90;;;17.30;99.90;;;;;;4999139;28;20172;-76
2021/05/20 10:02:59;;;;;;;0.80;0.80;;;16.80;99.90;;;;;;4995123;28;20307;-76
2021/05/20 10:05:33;;;;;;;3.72;1.10;;;16.70;99.90;;;;;;4997496;28;20195;-77
2021/05/20 10:08:02;;;;;;;3.35;1.23;;;16.90;99.90;;;;;;5003445;28;20199;-76
2021/05/20 10:10:29;;;;;;;1.25;1.15;;;17.20;99.90;;;;;;4997634;28;20192;-75
2021/05/20 10:13:08;;;;;;;1.75;1.20;;;17.10;99.90;;;;;;4999762;28;20256;-74
2021/05/20 10:15:35;;;;;;;1.40;1.13;;;16.90;99.90;;;;;;5001805;28;20186;-76
2021/05/20 10:18:09;;;;;;;1.23;0.88;;;16.90;99.90;;;;;;5005257;23;20220;-79
2021/05/20 10:20:35;;;;;;;0.73;0.60;;;16.90;99.90;;;;;;4996717;28;20184;-78
2021/05/20 10:23:05;;;;;;;0.65;0.65;;;17.10;99.90;;;;;;5002865;28;20183;-79
2021/05/20 10:25:31;;;;;;;0.77;0.68;;;17.40;99.90;;;;;;5006681;28;20184;-78
2021/05/20 10:27:58;;;;;;;2.28;1.17;;;17.90;99.90;;;;;;4994643;28;20697;-78
2021/05/20 10:30:25;;;;;;;2.17;0.98;;;18.40;99.90;;;;;;4992181;28;20196;-79
2021/05/20 10:32:56;;;;;;;0.75;0.47;;;18.50;99.90;;;;;;5007036;28;20191;-78
2021/05/20 10:35:23;;;;;;;1.17;0.63;;;18.10;99.90;;;;;;4999944;28;20184;-78
2021/05/20 10:37:59;;;;;;;0.80;0.60;;;18.30;99.90;;;;;;5001027;28;20200;-79
2021/05/20 10:40:24;;;;;;;1.40;0.60;;;18.20;99.90;;;;;;5008524;28;20238;-77
2021/05/20 10:43:08;;;;;;;0.63;0.60;;;18.40;99.80;;;;;;5003043;28;20200;-79
2021/05/20 10:45:35;;;;;;;1.23;0.40;;;18.60;98.50;;;;;;5003777;28;20192;-76
2021/05/20 10:48:04;;;;;;;0.55;0.55;;;18.70;99.60;;;;;;5010642;28;21246;-77
2021/05/20 10:51:00;;;;;;;0.60;0.60;;;18.80;99.40;;;;;;5013571;28;20223;-75
2021/05/20 10:53:47;;;;;;;0.80;0.60;;;19.00;98.20;;;;;;5010252;28;20263;-75
2021/05/20 10:56:15;;;;;;;0.52;0.52;;;19.10;96.10;;;;;;5018446;28;20242;-76
2021/05/20 10:58:47;;;;;;;0.60;0.60;;;19.00;97.00;;;;;;5034365;28;20192;-76
2021/05/20 11:01:34;;;;;;;0.40;0.40;;;19.20;97.70;;;;;;5017439;28;20196;-77
2021/05/20 11:04:02;;;;;;;1.15;0.70;;;19.10;94.70;;;;;;5008468;28;20287;-76
2021/05/20 11:06:37;;;;;;;0.43;0.40;;;18.60;96.10;;;;;;5019486;28;20283;-76
2021/05/20 11:09:10;;;;;;;1.13;0.70;;;18.40;95.80;;;;;;5021350;28;20187;-78
2021/05/20 11:11:39;;;;;;;0.50;0.50;;;18.30;97.70;;;;;;5012891;28;20219;-76
2021/05/20 11:14:26;;;;;;;1.00;0.65;;;18.40;96.10;;;;;;5017243;28;20180;-77
2021/05/20 11:16:53;;;;;;;1.20;0.50;;;18.20;98.10;;;;;;5010840;28;20210;-78
2021/05/20 11:19:25;;;;;;;0.73;0.50;;;17.90;98.70;;;;;;5001770;28;20187;-78
2021/05/20 11:24:27;;;;;;;1.33;0.90;;;17.50;99.90;;;;;;5005080;28;20188;-77
2021/05/20 11:27:23;;;;;;;1.15;1.00;;;17.40;99.90;;;;;;5000783;28;20234;-79
2021/05/20 11:29:49;;;;;;;0.82;0.75;;;17.30;99.90;;;;;;5012455;28;20194;-78
2021/05/20 11:32:25;;;;;;;0.80;0.80;;;17.30;99.90;;;;;;5004641;28;20180;-77
2021/05/20 11:37:37;;;;;;;0.52;0.52;;;17.70;99.90;;;;;;5004657;28;20215;-77
2021/05/20 11:40:07;;;;;;;0.65;0.60;;;17.90;99.90;;;;;;5004190;28;20266;-78
2021/05/20 11:42:34;;;;;;;0.75;0.70;;;18.30;99.90;;;;;;5002090;28;20270;-77
2021/05/20 11:45:00;;;;;;;0.75;0.70;;;18.60;99.90;;;;;;4995218;28;20193;-76
2021/05/20 11:47:27;;;;;;;0.80;0.50;;;18.90;99.90;;;;;;4997231;28;20721;-76
2021/05/20 11:49:54;;;;;;;0.73;0.43;;;18.80;97.20;;;;;;5011619;28;20196;-77
2021/05/20 11:52:23;;;;;;;1.85;0.80;;;18.50;96.50;;;;;;5009539;28;20195;-77
2021/05/20 11:54:51;;;;;;;0.40;0.40;;;18.10;97.10;;;;;;5018568;28;20213;-76
2021/05/20 11:57:20;;;;;;;0.50;0.50;;;18.20;99.30;;;;;;5016884;28;20200;-76
2021/05/20 11:59:52;;;;;;;0.45;0.45;;;18.70;98.60;;;;;;5022654;28;20194;-76
2021/05/20 12:02:20;;;;;;;1.48;0.70;;;18.90;98.10;;;;;;5019886;28;20514;-76
2021/05/20 12:04:46;;;;;;;0.50;0.50;;;19.10;97.20;;;;;;5020586;28;20176;-76
2021/05/20 12:07:24;;;;;;;0.60;0.60;;;19.30;96.70;;;;;;5023291;28;20229;-76
2021/05/20 12:09:50;;;;;;;1.33;0.70;;;19.40;97.80;;;;;;5011929;28;20176;-79
2021/05/20 12:12:16;;;;;;;1.70;0.98;;;19.10;97.30;;;;;;5003974;28;20758;-76
2021/05/20 12:14:44;;;;;;;0.73;0.70;;;18.90;98.30;;;;;;5000609;28;20187;-79
2021/05/20 12:17:13;;;;;;;2.00;0.75;;;18.90;99.10;;;;;;5000388;28;20724;-78
2021/05/20 12:19:45;;;;;;;0.60;0.60;;;19.00;99.00;;;;;;5002597;28;20184;-76
2021/05/20 12:22:27;;;;;;;1.42;0.80;;;19.00;99.20;;;;;;5006182;28;20194;-78
2021/05/20 12:24:58;;;;;;;1.25;0.77;;;19.30;99.40;;;;;;4994753;28;20242;-79
2021/05/20 12:27:28;;;;;;;0.77;0.77;;;19.90;97.80;;;;;;4999352;28;20645;-78
2021/05/20 12:29:59;;;;;;;1.10;0.93;;;20.10;96.60;;;;;;5004604;28;20723;-76
2021/05/20 12:32:36;;;;;;;0.60;0.60;;;20.40;93.90;;;;;;4997606;28;20181;-78
2021/05/20 12:35:18;;;;;;;0.93;0.60;;;20.70;93.20;;;;;;5005214;28;20176;-78
2021/05/20 12:38:07;;;;;;;0.70;0.50;;;20.70;89.30;;;;;;5002958;28;20299;-78
2021/05/20 12:40:53;;;;;;;3.72;0.75;;;20.60;81.90;;;;;;5003214;28;20187;-76
2021/05/20 12:43:19;;;;;;;0.55;0.43;;;20.70;81.90;;;;;;5003129;28;20192;-78
2021/05/20 12:45:45;;;;;;;0.70;0.52;;;20.80;79.60;;;;;;5001534;28;20181;-79
2021/05/20 12:48:30;;;;;;;0.60;0.60;;;20.70;80.90;;;;;;5002328;28;20267;-77
2021/05/20 12:51:04;;;;;;;1.05;0.93;;;20.00;90.70;;;;;;5000016;28;20273;-78
2021/05/20 12:53:36;;;;;;;1.98;1.60;;;20.00;94.50;;;;;;5003951;28;20191;-78
2021/05/20 12:56:04;;;;;;;1.30;1.10;;;19.70;95.90;;;;;;4995834;28;20339;-77
2021/05/20 12:58:51;;;;;;;2.10;1.58;;;19.20;96.00;;;;;;4999075;28;20256;-79
2021/05/20 13:01:18;;;;;;;1.58;1.20;;;18.60;96.60;;;;;;5000192;28;20205;-78
2021/05/20 13:03:48;;;;;;;2.47;1.40;;;18.50;96.60;;;;;;5002027;28;20184;-78
2021/05/20 13:06:29;;;;;;;1.77;1.30;;;18.50;97.70;;;;;;5001828;28;20374;-77
2021/05/20 13:09:04;;;;;;;2.03;1.20;;;18.80;97.90;;;;;;4991939;28;20183;-77